Airfield :
LOGIN :

Register | Disclaimer

   EN    FR    IT 

 










Legend :    VFR   Marginal VFR   IFR   Intensive IFR   Very Intensive IFR
Visi :
Ceiling :
>= 8 km
>= 3000ft
5 to 8 km
1000 to 3000 ft
1500m to 5 km
500 to 1000 ft
800 to 1500m
200 to 500 ft
< 800m
< 200 ft
Symbols :   Thunderstorms  Fog  Heavy snow  Heavy precipitations  Wind > 20 kt
SIGMETs :     Misc.  Thunderstorms  Icing  Turbulence  Mountain Waves  Volcanic Ashes







- Airport Elevation : 370 ft


EBBE - Beauvechain AB

CURRENT METAR :
  • 221825Z AUTO 32008KT 9999 BKN046/// 13/07 Q1029 BLU

EXPIRED METARs :
  • 221755Z AUTO 32010KT 9999 FEW030/// BKN050/// 14/07 Q1029 BLU
  • 221725Z AUTO 33010KT 9999 FEW030/// BKN050/// 14/07 Q1028 BLU
  • 221655Z AUTO 32011KT 9999 FEW028/// SCT034/// BKN050/// 15/07 Q1028 BLU
  • 221625Z AUTO 32009KT 9999 OVC048/// 14/07 Q1028 BLU
  • 221555Z 32011KT 9999 FEW030 BKN055 14/07 Q1029 BLU BLU

TAF TAF EBBE
Valid from the 22 at 19:00 until the 23 at 07:00 UTC


221541Z 2219/2307 34006KT 9999 SCT035
TEMPO 2303/2307 SCT015 BKN020
No reported NOTAMs for that airfield.



MET'MAP, your aeronautical weather chart ! - Copyright ORBIFLY December 2007 - Disclaimer

ORBIFLY MET'MAP TEAM :

Programming & Development : Alexandra Zaïnal
Concept & Development : Baudouin d'Aumeries
Co-Development & Prog : Marc-Olivier Méhu
Technical & hardware support : Manuel Goepfert

Contact : metmap@orbifly.com




SOURCES & CREDITS :

   NOAA